Time;durP1;ratioP1;P1;durP2;ratioP2;P2;SDS_P1;SDS_P2;PMS_P1;PMS_P2;Temp;Humidity;BMP_temperature;BMP_pressure;BME280_temperature;BME280_humidity;BME280_pressure;Samples;Min_cycle;Max_cycle;Signal;HPM_P1;HPM_P2
2022/10/20 00:00:37;;;;;;;1.52;1.10;;;23.60;63.20;;;;;;6255700;28;20047;-57
2022/10/20 00:03:39;;;;;;;1.30;1.10;;;23.30;62.90;;;;;;6259203;28;20072;-57
2022/10/20 00:06:41;;;;;;;1.73;0.90;;;23.00;62.70;;;;;;6259757;28;20055;-56
2022/10/20 00:09:43;;;;;;;1.70;1.00;;;23.50;63.00;;;;;;6260838;28;20147;-58
2022/10/20 00:12:44;;;;;;;2.10;1.02;;;23.50;63.00;;;;;;6262850;28;20044;-58
2022/10/20 00:15:48;;;;;;;1.15;1.05;;;23.50;62.90;;;;;;6255478;28;20042;-57
2022/10/20 00:18:50;;;;;;;0.95;0.85;;;23.50;63.00;;;;;;6256329;28;20044;-58
2022/10/20 00:21:52;;;;;;;1.20;0.93;;;23.70;63.00;;;;;;6258876;28;20044;-58
2022/10/20 00:24:54;;;;;;;1.15;0.88;;;23.70;63.10;;;;;;6270005;28;20047;-58
2022/10/20 00:27:55;;;;;;;1.40;0.82;;;23.40;62.90;;;;;;6266314;28;20095;-57
2022/10/20 00:30:57;;;;;;;;;;;23.50;63.00;;;;;;6251138;28;20171;-57
2022/10/20 00:33:58;;;;;;;1.13;0.90;;;23.40;62.90;;;;;;6257274;28;20148;-58
2022/10/20 00:37:00;;;;;;;1.40;0.82;;;23.40;63.00;;;;;;6261756;28;20079;-58
2022/10/20 00:40:02;;;;;;;1.35;0.93;;;23.50;63.10;;;;;;6262499;28;20838;-58
2022/10/20 00:43:03;;;;;;;1.23;0.90;;;23.40;63.00;;;;;;6264554;28;20770;-58
2022/10/20 00:46:05;;;;;;;1.08;0.90;;;23.60;63.10;;;;;;6256938;28;22911;-58
2022/10/20 00:49:12;;;;;;;1.83;1.00;;;23.80;63.20;;;;;;6247301;28;20942;-58
2022/10/20 00:52:17;;;;;;;1.70;1.02;;;23.20;62.80;;;;;;6251429;28;20040;-57
2022/10/20 00:55:23;;;;;;;1.25;1.13;;;23.40;62.80;;;;;;6256768;28;20059;-57
2022/10/20 00:58:25;;;;;;;1.10;0.93;;;23.60;62.90;;;;;;6254025;28;21299;-57
2022/10/20 01:01:26;;;;;;;1.35;1.02;;;23.50;62.90;;;;;;6255126;28;20223;-58
2022/10/20 01:04:30;;;;;;;1.67;1.20;;;23.30;62.80;;;;;;6263825;28;20036;-58
2022/10/20 01:07:34;;;;;;;1.60;1.10;;;23.30;62.70;;;;;;6259262;28;20046;-58
2022/10/20 01:10:40;;;;;;;1.80;1.23;;;23.30;62.70;;;;;;6254343;28;20914;-58
2022/10/20 01:13:53;;;;;;;1.65;0.90;;;23.30;62.70;;;;;;6255170;28;20081;-57
2022/10/20 01:17:00;;;;;;;1.80;1.17;;;23.80;62.90;;;;;;6252008;28;20040;-55
2022/10/20 01:20:23;;;;;;;1.50;1.00;;;23.30;62.70;;;;;;6254847;28;20048;-56
2022/10/20 01:23:42;;;;;;;1.27;1.00;;;23.60;63.00;;;;;;6252521;28;20251;-53
2022/10/20 01:27:14;;;;;;;1.45;1.08;;;24.00;63.20;;;;;;6253743;28;20142;-58
2022/10/20 01:30:18;;;;;;;1.42;1.20;;;23.40;62.90;;;;;;6243712;28;20575;-57
2022/10/20 01:33:23;;;;;;;1.17;0.90;;;23.10;62.70;;;;;;6254250;28;20354;-56
2022/10/20 01:36:31;;;;;;;1.48;0.82;;;24.10;63.40;;;;;;6261181;28;20365;-56
2022/10/20 01:39:45;;;;;;;1.15;0.80;;;23.30;63.60;;;;;;6255321;28;20545;-54
2022/10/20 01:42:50;;;;;;;1.42;0.90;;;23.10;62.80;;;;;;6251162;28;20578;-57
2022/10/20 01:45:53;;;;;;;1.50;1.00;;;23.70;63.20;;;;;;6251597;28;20048;-56
2022/10/20 01:48:56;;;;;;;1.25;0.90;;;23.40;63.00;;;;;;6245760;28;20113;-57
2022/10/20 01:51:59;;;;;;;1.52;0.98;;;23.30;62.90;;;;;;6255261;28;20474;-56
2022/10/20 01:55:01;;;;;;;1.02;0.80;;;23.30;63.00;;;;;;6261873;28;20079;-55
2022/10/20 01:58:15;;;;;;;1.80;1.08;;;23.40;63.10;;;;;;6253475;28;20861;-57
2022/10/20 02:01:27;;;;;;;2.05;1.10;;;23.50;63.10;;;;;;6255204;28;20356;-57
2022/10/20 02:04:36;;;;;;;1.55;0.93;;;23.50;63.10;;;;;;6240718;28;20155;-58
2022/10/20 02:07:40;;;;;;;0.85;0.73;;;23.30;63.00;;;;;;6248547;28;20341;-56
2022/10/20 02:10:47;;;;;;;0.90;0.68;;;23.20;63.00;;;;;;6255475;28;20577;-57
2022/10/20 02:13:50;;;;;;;1.25;0.70;;;23.30;63.00;;;;;;6246238;28;20193;-58
2022/10/20 02:16:57;;;;;;;1.33;1.00;;;23.60;63.20;;;;;;6234051;28;20416;-54
2022/10/20 02:19:58;;;;;;;1.30;1.02;;;23.40;63.10;;;;;;6255215;28;20050;-56
2022/10/20 02:23:03;;;;;;;0.98;0.88;;;23.30;63.20;;;;;;6256435;28;20047;-55
2022/10/20 02:26:07;;;;;;;0.70;0.70;;;23.50;63.20;;;;;;6258003;28;20439;-57
2022/10/20 02:29:12;;;;;;;1.42;1.10;;;23.50;63.20;;;;;;6256816;28;20518;-58
2022/10/20 02:32:16;;;;;;;1.15;0.70;;;23.30;63.10;;;;;;6255529;28;20386;-56
2022/10/20 02:35:20;;;;;;;1.42;0.95;;;23.10;63.00;;;;;;6261626;28;20045;-55
2022/10/20 02:38:22;;;;;;;1.55;0.90;;;23.50;63.20;;;;;;6261874;28;20332;-56
2022/10/20 02:41:24;;;;;;;1.92;0.95;;;23.40;63.20;;;;;;6255056;28;20047;-55
2022/10/20 02:44:25;;;;;;;1.33;0.82;;;23.50;63.20;;;;;;6252837;28;20364;-57
2022/10/20 02:47:27;;;;;;;1.52;0.82;;;23.20;63.00;;;;;;6241459;28;20043;-56
2022/10/20 02:50:29;;;;;;;1.70;1.10;;;23.50;63.10;;;;;;6248192;28;20040;-58
2022/10/20 02:53:33;;;;;;;1.52;1.00;;;23.40;63.00;;;;;;6255693;28;20042;-57
2022/10/20 02:56:36;;;;;;;1.15;0.90;;;23.40;63.00;;;;;;6258378;28;20052;-56
2022/10/20 02:59:37;;;;;;;0.98;0.70;;;23.20;62.50;;;;;;6255453;28;20657;-57
2022/10/20 03:02:39;;;;;;;;;;;23.50;63.00;;;;;;6262365;28;20039;-58
2022/10/20 03:05:43;;;;;;;0.85;0.65;;;23.20;62.90;;;;;;6259896;28;20322;-57
2022/10/20 03:08:44;;;;;;;1.00;0.80;;;24.00;63.20;;;;;;6255225;28;20478;-57
2022/10/20 03:11:46;;;;;;;1.88;1.02;;;23.10;62.70;;;;;;6256551;28;20155;-56
2022/10/20 03:14:47;;;;;;;1.25;0.73;;;23.50;62.90;;;;;;6263294;28;20044;-60
2022/10/20 03:17:49;;;;;;;;;;;23.30;62.80;;;;;;6256923;28;20314;-56
2022/10/20 03:20:51;;;;;;;0.80;0.70;;;23.00;62.70;;;;;;6256375;28;19924;-56
2022/10/20 03:23:53;;;;;;;3.25;1.05;;;23.10;62.70;;;;;;6253154;28;20055;-56
2022/10/20 03:26:55;;;;;;;1.55;0.90;;;23.30;63.00;;;;;;6258386;28;20040;-58
2022/10/20 03:29:56;;;;;;;;;;;23.00;62.90;;;;;;6263766;28;20072;-61
2022/10/20 03:32:58;;;;;;;1.05;0.60;;;23.10;63.40;;;;;;6259705;28;19939;-60
2022/10/20 03:35:59;;;;;;;1.33;0.73;;;23.20;63.20;;;;;;6262751;28;20043;-60
2022/10/20 03:39:01;;;;;;;0.88;0.88;;;23.20;63.20;;;;;;6263703;28;20071;-60
2022/10/20 03:42:02;;;;;;;;;;;23.30;63.40;;;;;;6266520;28;20047;-60
2022/10/20 03:45:05;;;;;;;1.20;0.80;;;23.10;63.30;;;;;;6265605;28;20144;-60
2022/10/20 03:48:07;;;;;;;1.48;0.82;;;23.50;63.30;;;;;;6257715;28;20070;-58
2022/10/20 03:51:12;;;;;;;1.92;0.80;;;23.20;63.10;;;;;;6255885;28;20998;-59
2022/10/20 03:54:17;;;;;;;0.80;0.60;;;23.10;63.00;;;;;;6258532;28;20060;-59
2022/10/20 03:57:19;;;;;;;1.10;0.90;;;23.10;63.00;;;;;;6268528;28;20047;-59
2022/10/20 04:00:21;;;;;;;1.48;0.80;;;23.10;63.00;;;;;;6253207;28;20064;-60
2022/10/20 04:03:23;;;;;;;1.05;0.70;;;23.40;63.20;;;;;;6258050;28;20076;-60
2022/10/20 04:06:24;;;;;;;0.80;0.60;;;23.10;62.90;;;;;;6267592;28;21047;-59
2022/10/20 04:09:26;;;;;;;0.95;0.60;;;23.40;63.00;;;;;;6256472;28;20037;-60
2022/10/20 04:12:28;;;;;;;1.08;0.60;;;23.30;62.90;;;;;;6264195;28;21119;-60
2022/10/20 04:15:30;;;;;;;1.10;0.75;;;22.90;62.70;;;;;;6258340;28;20098;-60
2022/10/20 04:18:32;;;;;;;0.75;0.60;;;23.30;63.00;;;;;;6235927;28;20044;-58
2022/10/20 04:21:33;;;;;;;1.00;0.60;;;23.30;62.90;;;;;;6248666;28;20050;-60
2022/10/20 04:24:35;;;;;;;;;;;23.70;63.20;;;;;;6254343;28;20092;-60
2022/10/20 04:27:36;;;;;;;0.47;0.40;;;23.10;62.90;;;;;;6251977;28;19935;-58
2022/10/20 04:30:39;;;;;;;0.85;0.70;;;23.40;62.80;;;;;;6253556;28;20044;-60
2022/10/20 04:33:41;;;;;;;0.65;0.50;;;23.10;62.90;;;;;;6254867;28;20039;-60
2022/10/20 04:36:42;;;;;;;0.75;0.55;;;23.30;62.60;;;;;;6256462;28;20054;-60
2022/10/20 04:39:43;;;;;;;;;;;23.50;62.70;;;;;;6258049;28;20138;-60
2022/10/20 04:42:48;;;;;;;0.68;0.50;;;23.30;62.80;;;;;;6253107;28;20893;-60
2022/10/20 04:45:50;;;;;;;0.45;0.35;;;23.30;62.60;;;;;;6249894;28;20506;-60
2022/10/20 04:48:52;;;;;;;0.63;0.47;;;23.10;62.40;;;;;;6255072;28;20083;-59
2022/10/20 04:51:53;;;;;;;0.85;0.47;;;23.50;62.50;;;;;;6227944;28;20041;-60
2022/10/20 04:55:02;;;;;;;0.63;0.32;;;23.50;62.50;;;;;;6246953;28;20180;-59
2022/10/20 04:58:03;;;;;;;0.88;0.57;;;23.20;62.10;;;;;;6252310;28;20936;-60
2022/10/20 05:01:08;;;;;;;0.50;0.30;;;23.20;62.20;;;;;;6253665;28;20129;-60
2022/10/20 05:04:10;;;;;;;0.50;0.32;;;23.10;62.00;;;;;;6244083;28;20075;-60
2022/10/20 05:07:12;;;;;;;0.60;0.47;;;23.00;61.90;;;;;;6245815;28;20083;-60
2022/10/20 05:10:13;;;;;;;;;;;23.30;62.20;;;;;;6245461;28;20229;-60
2022/10/20 05:13:14;;;;;;;0.57;0.20;;;23.30;62.30;;;;;;6232587;28;21028;-61
2022/10/20 05:16:16;;;;;;;0.28;0.20;;;23.20;62.10;;;;;;6246682;28;20051;-60
2022/10/20 05:19:18;;;;;;;0.30;0.25;;;23.50;61.90;;;;;;6240106;28;20036;-60
2022/10/20 05:22:20;;;;;;;0.20;0.10;;;23.10;61.30;;;;;;6252108;28;20068;-60
2022/10/20 05:25:24;;;;;;;;;;;23.20;61.10;;;;;;6244624;28;20036;-60
2022/10/20 05:28:38;;;;;;;0.47;0.32;;;23.20;61.10;;;;;;6238687;28;19992;-60
2022/10/20 05:31:42;;;;;;;0.25;0.20;;;23.60;61.00;;;;;;6234440;28;20038;-60
2022/10/20 05:34:44;;;;;;;0.20;0.10;;;23.00;60.00;;;;;;6248636;28;20109;-60
2022/10/20 05:37:46;;;;;;;0.30;0.20;;;23.20;59.70;;;;;;6247450;28;20048;-60
2022/10/20 05:40:47;;;;;;;0.10;0.00;;;23.10;59.70;;;;;;6224026;28;20484;-59
2022/10/20 05:43:49;;;;;;;0.20;0.20;;;23.40;59.40;;;;;;6237067;28;20047;-60
2022/10/20 05:46:51;;;;;;;0.10;0.10;;;23.40;59.50;;;;;;6216763;28;20062;-60
2022/10/20 05:49:53;;;;;;;0.10;0.10;;;23.40;59.10;;;;;;6238398;28;20062;-60
2022/10/20 05:52:54;;;;;;;0.20;0.10;;;23.00;58.70;;;;;;6235448;28;20631;-59
2022/10/20 05:56:01;;;;;;;;;;;23.10;58.60;;;;;;6231339;28;20044;-60
2022/10/20 05:59:02;;;;;;;0.20;0.10;;;22.90;58.60;;;;;;6229147;28;19924;-60
2022/10/20 06:02:04;;;;;;;;;;;23.30;58.80;;;;;;6219898;28;21132;-60
2022/10/20 06:05:06;;;;;;;0.10;0.10;;;23.40;59.00;;;;;;6225258;28;19959;-60
2022/10/20 06:08:07;;;;;;;0.13;0.10;;;23.30;58.60;;;;;;6226273;28;20040;-61
2022/10/20 06:11:10;;;;;;;;;;;23.10;58.50;;;;;;6225177;28;21172;-61
2022/10/20 06:14:11;;;;;;;0.15;0.10;;;23.00;58.40;;;;;;6212940;28;21147;-60
2022/10/20 06:17:13;;;;;;;0.15;0.10;;;23.20;58.60;;;;;;6204485;28;20109;-60
2022/10/20 06:20:15;;;;;;;0.10;0.10;;;23.00;58.20;;;;;;6212594;28;20151;-60
2022/10/20 06:23:16;;;;;;;0.10;0.10;;;23.20;58.30;;;;;;6203334;28;20044;-60
2022/10/20 06:26:19;;;;;;;;;;;23.20;58.20;;;;;;6198364;28;20047;-60
2022/10/20 06:29:20;;;;;;;0.25;0.10;;;23.10;58.40;;;;;;6193667;28;19990;-60
2022/10/20 06:32:21;;;;;;;;;;;23.10;58.30;;;;;;6185688;28;21249;-60
2022/10/20 06:35:23;;;;;;;0.13;0.00;;;23.40;58.60;;;;;;6173095;28;19936;-60
2022/10/20 06:38:25;;;;;;;0.40;0.15;;;23.30;58.30;;;;;;6162403;28;20044;-61
2022/10/20 06:41:27;;;;;;;;;;;23.10;58.30;;;;;;6156122;28;20074;-59
2022/10/20 06:44:28;;;;;;;;;;;23.30;58.60;;;;;;6152348;28;19928;-60
2022/10/20 06:47:29;;;;;;;0.35;0.10;;;23.20;58.70;;;;;;6152218;28;19928;-60
2022/10/20 06:50:33;;;;;;;0.32;0.20;;;22.90;58.30;;;;;;6154103;28;20079;-60
2022/10/20 06:53:35;;;;;;;0.10;0.10;;;23.00;58.30;;;;;;6136329;28;20157;-60
2022/10/20 06:56:39;;;;;;;0.10;0.10;;;22.70;58.00;;;;;;6097121;28;20686;-60
2022/10/20 06:59:40;;;;;;;0.20;0.10;;;23.40;58.30;;;;;;6048261;28;20067;-59
2022/10/20 07:02:42;;;;;;;;;;;22.80;58.10;;;;;;6016160;28;20036;-56
2022/10/20 07:05:44;;;;;;;;;;;23.40;58.60;;;;;;6019126;28;20021;-58
2022/10/20 07:08:46;;;;;;;0.75;0.10;;;23.30;58.60;;;;;;6029252;28;19943;-60
2022/10/20 07:11:50;;;;;;;0.43;0.10;;;23.00;58.40;;;;;;6039874;28;20931;-57
2022/10/20 07:14:52;;;;;;;1.23;0.30;;;23.30;58.60;;;;;;6052723;28;20056;-56
2022/10/20 07:17:53;;;;;;;1.92;0.30;;;22.90;58.70;;;;;;6015843;28;20040;-56
2022/10/20 07:20:57;;;;;;;0.65;0.25;;;23.10;58.70;;;;;;6036060;28;20051;-55
2022/10/20 07:24:00;;;;;;;2.65;0.30;;;23.10;58.90;;;;;;6048186;28;20032;-58
2022/10/20 07:27:02;;;;;;;0.95;0.20;;;22.90;58.70;;;;;;6037387;28;20047;-53
2022/10/20 07:30:04;;;;;;;1.70;0.22;;;23.30;59.00;;;;;;6008941;28;20044;-54
2022/10/20 07:33:06;;;;;;;0.30;0.20;;;23.50;59.10;;;;;;5976830;28;20040;-52
2022/10/20 07:36:14;;;;;;;3.63;0.30;;;23.10;59.60;;;;;;5936033;28;20047;-58
2022/10/20 07:39:16;;;;;;;3.13;0.20;;;23.50;59.10;;;;;;5965307;28;20036;-55
2022/10/20 07:42:18;;;;;;;2.13;0.20;;;23.40;59.10;;;;;;5981822;28;20044;-55
2022/10/20 07:45:21;;;;;;;1.15;0.17;;;22.90;58.90;;;;;;6013378;28;20039;-56
2022/10/20 07:48:22;;;;;;;0.52;0.20;;;23.60;59.20;;;;;;5951981;28;30022;-58
2022/10/20 07:51:27;;;;;;;2.65;0.30;;;23.40;59.00;;;;;;5983108;28;20044;-57
2022/10/20 07:54:29;;;;;;;0.50;0.30;;;23.30;58.90;;;;;;5984232;28;20076;-57
2022/10/20 07:57:31;;;;;;;0.55;0.30;;;23.50;59.00;;;;;;5990477;28;22798;-54
2022/10/20 08:00:33;;;;;;;2.83;0.25;;;23.90;59.20;;;;;;5970552;28;20043;-58
2022/10/20 08:03:35;;;;;;;0.32;0.20;;;23.30;58.70;;;;;;5974331;28;21238;-56
2022/10/20 08:06:37;;;;;;;1.33;0.20;;;23.40;58.90;;;;;;5952953;28;20783;-55
2022/10/20 08:09:41;;;;;;;0.32;0.20;;;23.50;58.70;;;;;;5967419;28;21309;-52
2022/10/20 08:12:43;;;;;;;0.45;0.20;;;23.40;58.70;;;;;;5949184;28;20052;-51
2022/10/20 08:15:45;;;;;;;0.75;0.20;;;23.50;58.60;;;;;;5972052;28;20138;-56
2022/10/20 08:18:46;;;;;;;0.43;0.30;;;23.70;58.60;;;;;;5949288;28;31935;-55
2022/10/20 08:21:50;;;;;;;0.50;0.28;;;23.70;58.50;;;;;;5955071;28;20044;-56
2022/10/20 08:24:52;;;;;;;0.20;0.20;;;24.80;59.00;;;;;;5970322;28;30266;-57
2022/10/20 08:27:54;;;;;;;0.17;0.10;;;23.60;58.30;;;;;;5977433;28;21176;-54
2022/10/20 08:30:56;;;;;;;0.40;0.13;;;23.70;58.40;;;;;;5984550;28;20052;-52
2022/10/20 08:33:58;;;;;;;0.10;0.10;;;23.70;58.20;;;;;;5973311;28;20360;-53
2022/10/20 08:37:00;;;;;;;0.40;0.20;;;23.80;58.20;;;;;;5998039;28;35352;-55
2022/10/20 08:40:02;;;;;;;1.17;0.30;;;23.80;58.10;;;;;;5981078;28;20117;-54
2022/10/20 08:43:04;;;;;;;0.20;0.10;;;23.80;58.20;;;;;;5937553;28;33864;-52
2022/10/20 08:46:06;;;;;;;0.82;0.20;;;23.80;58.30;;;;;;5977709;28;21257;-50
2022/10/20 08:49:23;;;;;;;0.10;0.10;;;23.80;58.20;;;;;;5965255;28;20243;-54
2022/10/20 08:52:26;;;;;;;0.17;0.17;;;23.70;58.10;;;;;;5941400;28;20071;-53
2022/10/20 08:55:30;;;;;;;1.65;0.20;;;24.00;58.30;;;;;;5948585;28;23482;-54
2022/10/20 08:58:35;;;;;;;0.85;0.40;;;23.80;58.10;;;;;;5961273;28;20045;-56
2022/10/20 09:01:37;;;;;;;0.22;0.20;;;24.00;58.30;;;;;;5942802;28;20043;-54
2022/10/20 09:04:46;;;;;;;0.55;0.30;;;23.70;58.00;;;;;;5899719;28;20040;-53
2022/10/20 09:07:48;;;;;;;0.38;0.35;;;23.90;58.10;;;;;;5943060;28;20080;-56
2022/10/20 09:10:53;;;;;;;0.88;0.30;;;23.90;58.10;;;;;;5970919;28;23280;-54
2022/10/20 09:13:55;;;;;;;0.30;0.30;;;24.00;58.20;;;;;;5887509;28;21406;-52
2022/10/20 09:16:56;;;;;;;0.17;0.10;;;24.00;58.10;;;;;;5969954;28;27858;-54
2022/10/20 09:20:03;;;;;;;0.40;0.20;;;24.10;58.20;;;;;;5966604;28;23685;-54
2022/10/20 09:23:08;;;;;;;0.20;0.20;;;23.90;58.10;;;;;;5974958;28;32130;-54
2022/10/20 09:26:35;;;;;;;0.93;0.35;;;24.10;58.20;;;;;;5966117;28;21354;-55
2022/10/20 09:29:56;;;;;;;2.70;0.40;;;23.50;57.90;;;;;;5953634;28;20155;-52
2022/10/20 09:32:58;;;;;;;0.70;0.40;;;24.20;58.30;;;;;;5946212;28;22061;-50
2022/10/20 09:36:04;;;;;;;0.82;0.40;;;23.80;58.10;;;;;;5918856;28;24113;-50
2022/10/20 09:39:17;;;;;;;0.43;0.40;;;24.10;58.10;;;;;;5955730;28;20042;-51
2022/10/20 09:42:23;;;;;;;0.73;0.32;;;24.20;58.10;;;;;;5930772;28;25250;-55
2022/10/20 09:45:27;;;;;;;0.63;0.20;;;23.60;57.70;;;;;;5943889;28;22095;-53
2022/10/20 09:48:33;;;;;;;0.35;0.30;;;24.00;57.90;;;;;;5981871;28;20129;-55
2022/10/20 09:51:35;;;;;;;0.20;0.20;;;23.90;57.80;;;;;;5950519;28;21177;-55
2022/10/20 09:54:38;;;;;;;0.55;0.30;;;23.90;57.80;;;;;;5919035;28;20055;-52
2022/10/20 09:57:45;;;;;;;0.30;0.20;;;23.90;58.40;;;;;;5946690;28;20044;-56
2022/10/20 10:01:00;;;;;;;0.32;0.30;;;24.00;57.80;;;;;;5962757;28;20045;-57
2022/10/20 10:04:01;;;;;;;0.50;0.40;;;23.70;57.70;;;;;;5928226;28;20239;-56
2022/10/20 10:07:04;;;;;;;0.70;0.30;;;24.00;57.90;;;;;;5956595;28;21694;-56
2022/10/20 10:10:23;;;;;;;0.60;0.20;;;24.40;58.10;;;;;;6003401;28;20044;-57
2022/10/20 10:13:26;;;;;;;0.43;0.22;;;24.10;58.00;;;;;;5982398;28;20044;-55
2022/10/20 10:16:39;;;;;;;0.93;0.25;;;24.20;58.10;;;;;;5980755;28;20048;-56
2022/10/20 10:19:47;;;;;;;0.57;0.43;;;24.00;58.10;;;;;;5972715;28;20044;-56
2022/10/20 10:23:13;;;;;;;0.38;0.28;;;24.00;58.20;;;;;;5974199;28;20053;-58
2022/10/20 10:26:43;;;;;;;0.65;0.17;;;24.30;58.30;;;;;;6023671;28;20079;-56
2022/10/20 10:29:44;;;;;;;5.20;0.63;;;23.90;58.10;;;;;;5981299;28;21082;-57
2022/10/20 10:32:47;;;;;;;0.73;0.30;;;25.70;59.30;;;;;;5996641;28;20051;-57
2022/10/20 10:35:49;;;;;;;1.63;0.35;;;24.00;58.30;;;;;;6036614;28;20986;-58
2022/10/20 10:38:51;;;;;;;0.70;0.17;;;23.90;58.40;;;;;;6016106;28;20276;-57
2022/10/20 10:42:09;;;;;;;0.20;0.20;;;23.90;58.20;;;;;;6045556;28;20190;-57
2022/10/20 10:45:17;;;;;;;0.88;0.30;;;24.00;58.50;;;;;;6038242;28;20040;-56
2022/10/20 10:48:46;;;;;;;0.50;0.30;;;24.20;58.50;;;;;;6046906;28;21113;-59
2022/10/20 10:51:57;;;;;;;0.80;0.30;;;24.20;58.50;;;;;;6053026;28;22970;-58
2022/10/20 10:55:10;;;;;;;1.00;0.20;;;24.20;58.90;;;;;;6054507;28;20045;-58
2022/10/20 10:58:31;;;;;;;0.75;0.40;;;24.10;58.70;;;;;;6066891;28;20048;-59
2022/10/20 11:01:46;;;;;;;0.52;0.30;;;24.30;59.00;;;;;;6080292;28;20900;-58
2022/10/20 11:05:11;;;;;;;0.82;0.25;;;24.20;59.00;;;;;;6076219;28;20089;-58
2022/10/20 11:08:25;;;;;;;;;;;23.80;58.70;;;;;;6045936;28;20139;-58
2022/10/20 11:11:40;;;;;;;0.20;0.20;;;24.10;59.00;;;;;;6061506;28;23681;-58
2022/10/20 11:14:53;;;;;;;0.20;0.20;;;23.80;58.90;;;;;;6109748;28;20062;-58
2022/10/20 11:18:04;;;;;;;0.20;0.20;;;24.10;59.10;;;;;;6075565;28;20058;-58
2022/10/20 11:21:21;;;;;;;0.30;0.20;;;24.10;59.20;;;;;;6103326;28;20620;-58
2022/10/20 11:24:38;;;;;;;0.35;0.20;;;24.10;58.80;;;;;;6081026;28;20040;-58
2022/10/20 11:27:40;;;;;;;0.50;0.20;;;24.20;59.30;;;;;;6083343;28;20384;-58
2022/10/20 11:30:42;;;;;;;0.57;0.10;;;23.90;59.20;;;;;;6068914;28;20079;-55
2022/10/20 11:33:50;;;;;;;0.50;0.20;;;24.20;59.40;;;;;;6030648;22;32133;-59
2022/10/20 11:37:04;;;;;;;0.82;0.30;;;24.20;59.50;;;;;;6011294;28;20671;-60
2022/10/20 11:40:16;;;;;;;0.15;0.10;;;24.80;59.90;;;;;;6060033;28;21353;-60
2022/10/20 11:43:24;;;;;;;0.75;0.20;;;24.30;59.40;;;;;;6007322;28;25085;-60
2022/10/20 11:46:34;;;;;;;0.60;0.30;;;24.60;59.70;;;;;;6019438;28;20049;-61
2022/10/20 11:49:38;;;;;;;0.43;0.20;;;24.30;59.50;;;;;;5988257;28;20635;-61
2022/10/20 11:52:57;;;;;;;0.30;0.22;;;24.00;59.40;;;;;;5973034;28;20092;-60
2022/10/20 11:56:19;;;;;;;0.10;0.10;;;24.60;59.80;;;;;;5978294;28;20119;-59
2022/10/20 11:59:35;;;;;;;0.50;0.40;;;24.50;59.70;;;;;;5969178;28;20048;-60
2022/10/20 12:03:05;;;;;;;1.05;0.30;;;24.20;59.40;;;;;;5945890;28;20147;-56
2022/10/20 12:06:25;;;;;;;0.50;0.32;;;24.20;59.50;;;;;;5911335;28;20045;-58
2022/10/20 12:09:51;;;;;;;1.67;0.25;;;24.20;59.30;;;;;;5924817;28;20052;-57
2022/10/20 12:13:04;;;;;;;0.40;0.20;;;24.50;59.90;;;;;;5965214;28;21464;-58
2022/10/20 12:16:07;;;;;;;0.77;0.28;;;24.50;59.20;;;;;;5975764;28;20048;-59
2022/10/20 12:19:21;;;;;;;0.60;0.40;;;24.40;59.20;;;;;;5953771;28;20049;-59
2022/10/20 12:22:41;;;;;;;0.60;0.28;;;24.10;59.10;;;;;;5945005;28;20044;-61
2022/10/20 12:25:44;;;;;;;0.45;0.20;;;24.50;59.20;;;;;;5955816;28;20051;-61
2022/10/20 12:28:46;;;;;;;0.63;0.40;;;24.40;59.00;;;;;;5980383;28;20090;-60
2022/10/20 12:32:19;;;;;;;0.20;0.20;;;24.50;59.00;;;;;;5924138;28;23713;-59
2022/10/20 12:35:46;;;;;;;0.38;0.20;;;24.30;58.70;;;;;;5956476;28;21480;-56
2022/10/20 12:38:50;;;;;;;0.50;0.38;;;24.60;59.00;;;;;;5950611;28;20137;-59
2022/10/20 12:41:58;;;;;;;0.10;0.10;;;24.10;58.80;;;;;;5953837;28;20043;-60
2022/10/20 12:45:04;;;;;;;0.40;0.28;;;24.40;58.90;;;;;;5963423;28;20036;-60
2022/10/20 12:48:08;;;;;;;0.43;0.30;;;24.70;59.00;;;;;;5967752;28;21843;-61
2022/10/20 12:51:20;;;;;;;0.20;0.20;;;24.60;58.80;;;;;;5958263;28;20037;-60
2022/10/20 12:54:28;;;;;;;0.65;0.50;;;25.70;59.50;;;;;;5920493;28;21392;-59
2022/10/20 12:57:34;;;;;;;0.95;0.77;;;24.40;58.70;;;;;;5952677;28;20067;-57
2022/10/20 13:01:01;;;;;;;0.90;0.60;;;24.50;58.80;;;;;;5906796;28;20134;-60
2022/10/20 13:04:40;;;;;;;0.82;0.50;;;24.10;58.40;;;;;;5926745;28;20051;-57
2022/10/20 13:08:15;;;;;;;0.65;0.50;;;24.50;58.70;;;;;;5926199;28;20159;-60
2022/10/20 13:11:39;;;;;;;0.63;0.32;;;24.70;58.70;;;;;;5971843;28;20041;-58
2022/10/20 13:14:48;;;;;;;0.50;0.35;;;24.30;58.50;;;;;;5976650;28;20055;-59
2022/10/20 13:17:55;;;;;;;0.43;0.20;;;24.70;58.60;;;;;;5972413;28;20133;-62
2022/10/20 13:21:01;;;;;;;0.40;0.30;;;24.50;58.30;;;;;;5960037;28;20043;-61
2022/10/20 13:24:12;;;;;;;0.50;0.28;;;24.30;57.90;;;;;;5979056;28;20163;-59
2022/10/20 13:27:15;;;;;;;0.73;0.17;;;24.50;57.80;;;;;;5960760;28;21931;-60
2022/10/20 13:30:21;;;;;;;0.47;0.22;;;24.60;57.90;;;;;;5963296;28;20294;-59
2022/10/20 13:33:28;;;;;;;0.25;0.20;;;24.00;57.40;;;;;;5967540;28;32172;-59
2022/10/20 13:37:07;;;;;;;0.20;0.20;;;24.50;57.50;;;;;;5947152;28;20122;-60
2022/10/20 13:40:16;;;;;;;0.55;0.20;;;24.50;57.40;;;;;;5976030;28;20211;-59
2022/10/20 13:43:33;;;;;;;1.52;0.20;;;24.60;57.40;;;;;;5951610;28;32913;-58
2022/10/20 13:46:49;;;;;;;2.00;0.35;;;24.00;57.00;;;;;;5973795;28;20043;-61
2022/10/20 13:49:59;;;;;;;0.50;0.40;;;24.50;57.30;;;;;;5984819;28;20228;-60
2022/10/20 13:53:11;;;;;;;0.50;0.30;;;24.50;57.30;;;;;;5982289;28;20041;-61
2022/10/20 13:56:23;;;;;;;0.93;0.45;;;24.50;57.20;;;;;;5967378;28;51417;-61
2022/10/20 13:59:28;;;;;;;0.30;0.30;;;24.20;57.10;;;;;;5974461;28;31360;-61
2022/10/20 14:02:32;;;;;;;0.45;0.20;;;24.20;56.90;;;;;;5950415;28;20094;-60
2022/10/20 14:05:37;;;;;;;0.40;0.20;;;24.30;57.00;;;;;;5924457;28;20048;-61
2022/10/20 14:08:42;;;;;;;0.30;0.20;;;24.20;57.00;;;;;;5906577;28;20052;-59
2022/10/20 14:11:46;;;;;;;0.22;0.20;;;24.20;56.90;;;;;;5957663;28;20036;-58
2022/10/20 14:14:49;;;;;;;0.45;0.25;;;24.60;57.10;;;;;;5947862;28;20052;-59
2022/10/20 14:17:57;;;;;;;0.75;0.57;;;24.20;56.90;;;;;;5933505;28;20041;-61
2022/10/20 14:21:01;;;;;;;1.20;0.60;;;24.70;57.20;;;;;;5911528;28;21874;-61
2022/10/20 14:24:13;;;;;;;2.42;0.93;;;24.50;57.00;;;;;;5958662;28;20137;-58
2022/10/20 14:27:19;;;;;;;1.10;0.60;;;24.70;57.20;;;;;;5971561;28;20057;-57
2022/10/20 14:30:22;;;;;;;0.90;0.60;;;24.50;57.20;;;;;;5943078;28;20047;-59
2022/10/20 14:33:25;;;;;;;1.63;0.47;;;24.70;57.50;;;;;;5942265;28;20163;-59
2022/10/20 14:36:29;;;;;;;0.63;0.32;;;24.50;57.40;;;;;;5935517;28;20051;-57
2022/10/20 14:39:35;;;;;;;1.00;0.30;;;24.20;57.30;;;;;;5947606;28;20992;-56
2022/10/20 14:42:36;;;;;;;0.40;0.28;;;24.20;57.20;;;;;;5945706;28;21803;-55
2022/10/20 14:45:38;;;;;;;0.38;0.30;;;24.60;57.50;;;;;;5944778;28;20044;-53
2022/10/20 14:48:43;;;;;;;0.52;0.30;;;24.40;57.30;;;;;;5943232;28;20085;-55
2022/10/20 14:51:54;;;;;;;0.40;0.30;;;24.50;57.20;;;;;;5908445;28;20055;-58
2022/10/20 14:54:55;;;;;;;0.38;0.20;;;24.40;57.00;;;;;;5921885;28;20193;-55
2022/10/20 14:57:57;;;;;;;0.35;0.20;;;24.20;57.00;;;;;;5947038;28;21750;-57
2022/10/20 15:01:14;;;;;;;0.32;0.30;;;24.40;57.10;;;;;;5925347;28;20044;-58
2022/10/20 15:04:22;;;;;;;1.30;0.35;;;24.70;57.00;;;;;;5933716;28;20041;-57
2022/10/20 15:07:31;;;;;;;0.32;0.20;;;24.10;56.70;;;;;;5908447;28;20123;-57
2022/10/20 15:10:33;;;;;;;0.55;0.20;;;24.40;56.70;;;;;;5929496;28;21870;-56
2022/10/20 15:13:51;;;;;;;0.20;0.17;;;24.50;56.80;;;;;;5900189;28;20048;-61
2022/10/20 15:16:53;;;;;;;0.28;0.20;;;24.40;56.80;;;;;;5842246;28;20692;-60
2022/10/20 15:19:55;;;;;;;0.70;0.35;;;24.10;56.60;;;;;;5919960;28;20052;-61
2022/10/20 15:23:01;;;;;;;0.40;0.10;;;24.10;56.40;;;;;;5957986;28;20052;-62
2022/10/20 15:26:09;;;;;;;0.50;0.30;;;24.50;56.40;;;;;;5971209;28;25345;-62
2022/10/20 15:29:11;;;;;;;0.57;0.30;;;24.50;56.40;;;;;;5962950;28;22782;-59
2022/10/20 15:32:14;;;;;;;0.80;0.50;;;24.50;56.40;;;;;;5942970;28;20041;-61
2022/10/20 15:35:18;;;;;;;0.30;0.20;;;24.70;56.50;;;;;;5946653;28;20476;-59
2022/10/20 15:38:20;;;;;;;0.30;0.20;;;24.40;56.20;;;;;;5925760;28;20142;-57
2022/10/20 15:41:23;;;;;;;2.60;0.20;;;24.50;56.40;;;;;;5952964;28;20629;-59
2022/10/20 15:44:25;;;;;;;0.52;0.20;;;24.70;56.30;;;;;;5972230;28;20513;-58
2022/10/20 15:47:27;;;;;;;0.47;0.20;;;24.80;56.30;;;;;;5997470;28;21108;-61
2022/10/20 15:50:30;;;;;;;0.32;0.28;;;24.70;56.10;;;;;;6022408;28;20117;-60
2022/10/20 15:53:31;;;;;;;1.17;0.40;;;24.60;56.10;;;;;;6017587;28;20037;-60
2022/10/20 15:56:34;;;;;;;0.50;0.20;;;24.30;56.10;;;;;;6007560;28;22243;-57
2022/10/20 15:59:35;;;;;;;0.22;0.20;;;24.70;56.40;;;;;;6016839;28;20178;-62
2022/10/20 16:02:38;;;;;;;1.35;0.20;;;24.50;56.40;;;;;;5980914;28;20146;-62
2022/10/20 16:05:40;;;;;;;0.50;0.20;;;24.60;56.50;;;;;;6004382;28;20044;-61
2022/10/20 16:08:43;;;;;;;0.50;0.20;;;24.60;56.40;;;;;;6051940;28;21674;-61
2022/10/20 16:11:44;;;;;;;0.28;0.28;;;24.50;56.40;;;;;;6077131;28;20044;-63
2022/10/20 16:14:46;;;;;;;0.50;0.20;;;24.30;56.30;;;;;;6108476;28;20044;-56